Terminal Aerodrome Forecast
Issued by NWS

Home | Current Version | Previous Version | Text Only | Print | Product List | Glossary On
Versions: 1 2 3 4 5 6 7 8 9 10 11 12 13 14
000
FTUS43 KAPX 020520
TAFAPN
TAF
KAPN 020520Z 0206/0306 VRB03KT P6SM SKC
     FM021000 22005KT P6SM BKN140
     FM021300 22009KT P6SM VCSH BKN120
     FM021900 23010G17KT 6SM -TSRA OVC050CB
     FM022300 VRB03KT P6SM VCSH OVC040=

USA.gov is the U.S. government's official web portal to all federal, state and local government web resources and services.